sensor_id;sensor_type;location;lat;lon;timestamp;P1;durP1;ratioP1;P2;durP2;ratioP2
74821;SDS011;63353;48.702;8.884;2023-12-28T00:00:41;308.17;;;295.63;;
74821;SDS011;63353;48.702;8.884;2023-12-28T00:03:07;298.13;;;286.10;;
74821;SDS011;63353;48.702;8.884;2023-12-28T00:05:33;314.13;;;301.07;;
74821;SDS011;63353;48.702;8.884;2023-12-28T00:07:58;327.13;;;313.50;;
74821;SDS011;63353;48.702;8.884;2023-12-28T00:10:25;310.77;;;298.00;;
74821;SDS011;63353;48.702;8.884;2023-12-28T00:12:51;307.17;;;294.70;;
74821;SDS011;63353;48.702;8.884;2023-12-28T00:15:17;281.50;;;270.03;;
74821;SDS011;63353;48.702;8.884;2023-12-28T00:17:43;318.77;;;305.87;;
74821;SDS011;63353;48.702;8.884;2023-12-28T00:20:09;320.67;;;307.63;;
74821;SDS011;63353;48.702;8.884;2023-12-28T00:22:35;299.63;;;287.63;;
74821;SDS011;63353;48.702;8.884;2023-12-28T00:25:02;290.53;;;278.93;;
74821;SDS011;63353;48.702;8.884;2023-12-28T00:27:29;248.23;;;238.40;;
74821;SDS011;63353;48.702;8.884;2023-12-28T00:29:54;161.70;;;155.27;;
74821;SDS011;63353;48.702;8.884;2023-12-28T00:32:20;70.30;;;67.40;;
74821;SDS011;63353;48.702;8.884;2023-12-28T00:34:46;34.37;;;32.97;;
74821;SDS011;63353;48.702;8.884;2023-12-28T00:37:11;13.77;;;13.17;;
74821;SDS011;63353;48.702;8.884;2023-12-28T00:39:37;13.37;;;12.67;;
74821;SDS011;63353;48.702;8.884;2023-12-28T00:42:04;13.07;;;12.57;;
74821;SDS011;63353;48.702;8.884;2023-12-28T00:44:29;16.30;;;15.47;;
74821;SDS011;63353;48.702;8.884;2023-12-28T00:46:55;30.13;;;28.87;;
74821;SDS011;63353;48.702;8.884;2023-12-28T00:49:21;44.13;;;42.37;;
74821;SDS011;63353;48.702;8.884;2023-12-28T00:51:46;48.80;;;46.57;;
74821;SDS011;63353;48.702;8.884;2023-12-28T00:54:12;53.77;;;51.57;;
74821;SDS011;63353;48.702;8.884;2023-12-28T00:56:37;51.57;;;49.27;;
74821;SDS011;63353;48.702;8.884;2023-12-28T00:59:03;40.00;;;38.20;;
74821;SDS011;63353;48.702;8.884;2023-12-28T01:01:29;47.40;;;45.43;;
74821;SDS011;63353;48.702;8.884;2023-12-28T01:03:56;44.73;;;42.97;;
74821;SDS011;63353;48.702;8.884;2023-12-28T01:06:21;46.57;;;44.70;;
74821;SDS011;63353;48.702;8.884;2023-12-28T01:08:47;40.30;;;38.60;;
74821;SDS011;63353;48.702;8.884;2023-12-28T01:11:13;24.53;;;23.33;;
74821;SDS011;63353;48.702;8.884;2023-12-28T01:13:38;17.20;;;16.40;;
74821;SDS011;63353;48.702;8.884;2023-12-28T01:16:04;18.67;;;17.87;;
74821;SDS011;63353;48.702;8.884;2023-12-28T01:18:30;13.37;;;12.77;;
74821;SDS011;63353;48.702;8.884;2023-12-28T01:20:56;15.70;;;15.00;;
74821;SDS011;63353;48.702;8.884;2023-12-28T01:23:21;18.70;;;17.90;;
74821;SDS011;63353;48.702;8.884;2023-12-28T01:25:47;18.77;;;17.97;;
74821;SDS011;63353;48.702;8.884;2023-12-28T01:28:12;17.60;;;16.60;;
74821;SDS011;63353;48.702;8.884;2023-12-28T01:30:38;16.57;;;15.87;;
74821;SDS011;63353;48.702;8.884;2023-12-28T01:33:04;16.33;;;15.70;;
74821;SDS011;63353;48.702;8.884;2023-12-28T01:35:29;15.77;;;15.17;;
74821;SDS011;63353;48.702;8.884;2023-12-28T01:37:55;16.00;;;15.30;;
74821;SDS011;63353;48.702;8.884;2023-12-28T01:40:22;15.63;;;15.03;;
74821;SDS011;63353;48.702;8.884;2023-12-28T01:42:48;17.10;;;16.33;;
74821;SDS011;63353;48.702;8.884;2023-12-28T01:45:13;17.93;;;17.03;;
74821;SDS011;63353;48.702;8.884;2023-12-28T01:47:39;18.47;;;17.63;;
74821;SDS011;63353;48.702;8.884;2023-12-28T01:50:05;16.77;;;16.07;;
74821;SDS011;63353;48.702;8.884;2023-12-28T01:52:32;18.53;;;17.33;;
74821;SDS011;63353;48.702;8.884;2023-12-28T01:54:58;18.70;;;17.70;;
74821;SDS011;63353;48.702;8.884;2023-12-28T01:57:24;17.37;;;16.43;;
74821;SDS011;63353;48.702;8.884;2023-12-28T01:59:50;16.60;;;15.83;;
74821;SDS011;63353;48.702;8.884;2023-12-28T02:02:16;13.63;;;12.93;;
74821;SDS011;63353;48.702;8.884;2023-12-28T02:04:42;11.40;;;10.83;;
74821;SDS011;63353;48.702;8.884;2023-12-28T02:07:09;10.10;;;9.60;;
74821;SDS011;63353;48.702;8.884;2023-12-28T02:09:36;12.67;;;12.07;;
74821;SDS011;63353;48.702;8.884;2023-12-28T02:12:02;24.97;;;23.60;;
74821;SDS011;63353;48.702;8.884;2023-12-28T02:14:28;56.40;;;54.10;;
74821;SDS011;63353;48.702;8.884;2023-12-28T02:16:56;147.17;;;141.17;;
74821;SDS011;63353;48.702;8.884;2023-12-28T02:22:14;187.37;;;179.77;;
74821;SDS011;63353;48.702;8.884;2023-12-28T02:27:40;244.57;;;234.77;;
74821;SDS011;63353;48.702;8.884;2023-12-28T02:30:08;289.47;;;277.87;;
74821;SDS011;63353;48.702;8.884;2023-12-28T02:32:39;304.90;;;292.80;;
74821;SDS011;63353;48.702;8.884;2023-12-28T02:35:22;271.77;;;261.17;;
74821;SDS011;63353;48.702;8.884;2023-12-28T02:37:55;153.17;;;147.03;;
74821;SDS011;63353;48.702;8.884;2023-12-28T02:40:24;64.03;;;61.53;;
74821;SDS011;63353;48.702;8.884;2023-12-28T02:42:51;38.77;;;37.20;;
74821;SDS011;63353;48.702;8.884;2023-12-28T02:45:17;25.30;;;24.10;;
74821;SDS011;63353;48.702;8.884;2023-12-28T02:47:43;14.70;;;14.10;;
74821;SDS011;63353;48.702;8.884;2023-12-28T02:50:09;48.47;;;46.50;;
74821;SDS011;63353;48.702;8.884;2023-12-28T02:52:35;30.23;;;29.07;;
74821;SDS011;63353;48.702;8.884;2023-12-28T02:55:00;19.07;;;18.30;;
74821;SDS011;63353;48.702;8.884;2023-12-28T02:57:26;15.40;;;14.80;;
74821;SDS011;63353;48.702;8.884;2023-12-28T02:59:51;23.63;;;22.73;;
74821;SDS011;63353;48.702;8.884;2023-12-28T03:02:17;30.20;;;28.77;;
74821;SDS011;63353;48.702;8.884;2023-12-28T03:04:43;28.27;;;27.17;;
74821;SDS011;63353;48.702;8.884;2023-12-28T03:07:08;13.53;;;12.93;;
74821;SDS011;63353;48.702;8.884;2023-12-28T03:09:34;9.43;;;9.03;;
74821;SDS011;63353;48.702;8.884;2023-12-28T03:12:00;11.97;;;11.43;;
74821;SDS011;63353;48.702;8.884;2023-12-28T03:14:26;10.50;;;10.10;;
74821;SDS011;63353;48.702;8.884;2023-12-28T03:16:51;15.03;;;14.10;;
74821;SDS011;63353;48.702;8.884;2023-12-28T03:19:17;14.07;;;13.57;;
74821;SDS011;63353;48.702;8.884;2023-12-28T03:21:42;16.40;;;15.80;;
74821;SDS011;63353;48.702;8.884;2023-12-28T03:24:08;19.03;;;18.33;;
74821;SDS011;63353;48.702;8.884;2023-12-28T03:26:40;22.83;;;21.83;;
74821;SDS011;63353;48.702;8.884;2023-12-28T03:29:06;25.83;;;24.73;;
74821;SDS011;63353;48.702;8.884;2023-12-28T03:31:32;29.83;;;28.63;;
74821;SDS011;63353;48.702;8.884;2023-12-28T03:33:58;27.93;;;26.93;;
74821;SDS011;63353;48.702;8.884;2023-12-28T03:36:24;21.90;;;21.00;;
74821;SDS011;63353;48.702;8.884;2023-12-28T03:38:50;21.77;;;20.73;;
74821;SDS011;63353;48.702;8.884;2023-12-28T03:41:17;22.67;;;21.17;;
74821;SDS011;63353;48.702;8.884;2023-12-28T03:43:43;21.07;;;19.60;;
74821;SDS011;63353;48.702;8.884;2023-12-28T03:46:09;19.20;;;18.27;;
74821;SDS011;63353;48.702;8.884;2023-12-28T03:48:35;16.97;;;16.27;;
74821;SDS011;63353;48.702;8.884;2023-12-28T03:51:01;16.53;;;15.83;;
74821;SDS011;63353;48.702;8.884;2023-12-28T03:53:27;18.27;;;17.57;;
74821;SDS011;63353;48.702;8.884;2023-12-28T03:55:53;22.27;;;21.37;;
74821;SDS011;63353;48.702;8.884;2023-12-28T03:58:19;27.20;;;26.20;;
74821;SDS011;63353;48.702;8.884;2023-12-28T04:00:44;22.83;;;21.93;;
74821;SDS011;63353;48.702;8.884;2023-12-28T04:03:10;39.00;;;37.30;;
74821;SDS011;63353;48.702;8.884;2023-12-28T04:05:36;53.30;;;51.17;;
74821;SDS011;63353;48.702;8.884;2023-12-28T04:08:01;63.47;;;61.00;;
74821;SDS011;63353;48.702;8.884;2023-12-28T04:10:30;62.77;;;60.27;;
74821;SDS011;63353;48.702;8.884;2023-12-28T04:12:57;64.60;;;62.00;;
74821;SDS011;63353;48.702;8.884;2023-12-28T04:15:24;49.57;;;47.50;;
74821;SDS011;63353;48.702;8.884;2023-12-28T04:17:51;45.90;;;44.07;;
74821;SDS011;63353;48.702;8.884;2023-12-28T04:20:16;24.57;;;23.50;;
74821;SDS011;63353;48.702;8.884;2023-12-28T04:22:42;20.37;;;19.53;;
74821;SDS011;63353;48.702;8.884;2023-12-28T04:25:11;18.83;;;18.13;;
74821;SDS011;63353;48.702;8.884;2023-12-28T04:27:41;18.33;;;17.53;;
74821;SDS011;63353;48.702;8.884;2023-12-28T04:30:07;9.93;;;9.53;;
74821;SDS011;63353;48.702;8.884;2023-12-28T04:32:36;8.00;;;7.70;;
74821;SDS011;63353;48.702;8.884;2023-12-28T04:35:02;6.20;;;6.00;;
74821;SDS011;63353;48.702;8.884;2023-12-28T04:37:28;6.50;;;6.13;;
74821;SDS011;63353;48.702;8.884;2023-12-28T04:39:55;6.27;;;5.97;;
74821;SDS011;63353;48.702;8.884;2023-12-28T04:42:21;14.47;;;13.90;;
74821;SDS011;63353;48.702;8.884;2023-12-28T04:44:47;9.37;;;8.93;;
74821;SDS011;63353;48.702;8.884;2023-12-28T04:47:13;6.70;;;6.40;;
74821;SDS011;63353;48.702;8.884;2023-12-28T04:49:39;3.77;;;3.67;;
74821;SDS011;63353;48.702;8.884;2023-12-28T04:52:07;7.60;;;7.30;;
74821;SDS011;63353;48.702;8.884;2023-12-28T04:54:33;8.13;;;7.67;;
74821;SDS011;63353;48.702;8.884;2023-12-28T04:56:59;5.90;;;5.60;;
74821;SDS011;63353;48.702;8.884;2023-12-28T04:59:25;5.57;;;5.17;;
74821;SDS011;63353;48.702;8.884;2023-12-28T05:01:50;3.77;;;3.67;;
74821;SDS011;63353;48.702;8.884;2023-12-28T05:04:16;5.83;;;5.63;;
74821;SDS011;63353;48.702;8.884;2023-12-28T05:06:42;5.30;;;5.10;;
74821;SDS011;63353;48.702;8.884;2023-12-28T05:09:07;12.37;;;11.87;;
74821;SDS011;63353;48.702;8.884;2023-12-28T05:11:33;15.60;;;15.00;;
74821;SDS011;63353;48.702;8.884;2023-12-28T05:13:59;10.27;;;9.93;;
74821;SDS011;63353;48.702;8.884;2023-12-28T05:16:24;52.77;;;50.70;;
74821;SDS011;63353;48.702;8.884;2023-12-28T05:18:50;71.17;;;68.23;;
74821;SDS011;63353;48.702;8.884;2023-12-28T05:21:16;61.03;;;58.50;;
74821;SDS011;63353;48.702;8.884;2023-12-28T05:23:41;41.43;;;39.73;;
74821;SDS011;63353;48.702;8.884;2023-12-28T05:26:07;162.03;;;155.63;;
74821;SDS011;63353;48.702;8.884;2023-12-28T05:28:33;242.53;;;232.87;;
74821;SDS011;63353;48.702;8.884;2023-12-28T05:30:58;310.03;;;297.63;;
74821;SDS011;63353;48.702;8.884;2023-12-28T05:33:27;318.93;;;306.07;;
74821;SDS011;63353;48.702;8.884;2023-12-28T05:35:52;324.77;;;311.77;;
74821;SDS011;63353;48.702;8.884;2023-12-28T05:38:18;323.37;;;310.30;;
74821;SDS011;63353;48.702;8.884;2023-12-28T05:40:44;308.87;;;296.63;;
74821;SDS011;63353;48.702;8.884;2023-12-28T05:43:10;169.43;;;162.63;;
74821;SDS011;63353;48.702;8.884;2023-12-28T05:45:36;117.93;;;113.37;;
74821;SDS011;63353;48.702;8.884;2023-12-28T05:48:02;86.43;;;83.00;;
74821;SDS011;63353;48.702;8.884;2023-12-28T05:50:28;50.03;;;48.07;;
74821;SDS011;63353;48.702;8.884;2023-12-28T05:52:53;15.37;;;14.80;;
74821;SDS011;63353;48.702;8.884;2023-12-28T05:55:20;10.33;;;9.83;;
74821;SDS011;63353;48.702;8.884;2023-12-28T05:57:45;5.87;;;5.47;;
74821;SDS011;63353;48.702;8.884;2023-12-28T06:00:12;6.37;;;6.17;;
74821;SDS011;63353;48.702;8.884;2023-12-28T06:02:38;11.93;;;11.43;;
74821;SDS011;63353;48.702;8.884;2023-12-28T06:05:04;18.77;;;17.97;;
74821;SDS011;63353;48.702;8.884;2023-12-28T06:07:30;69.43;;;66.63;;
74821;SDS011;63353;48.702;8.884;2023-12-28T06:09:55;78.50;;;75.40;;
74821;SDS011;63353;48.702;8.884;2023-12-28T06:12:21;107.27;;;103.03;;
74821;SDS011;63353;48.702;8.884;2023-12-28T06:14:47;91.97;;;88.00;;
74821;SDS011;63353;48.702;8.884;2023-12-28T06:17:12;74.67;;;71.60;;
74821;SDS011;63353;48.702;8.884;2023-12-28T06:19:40;64.87;;;61.93;;
74821;SDS011;63353;48.702;8.884;2023-12-28T06:22:06;52.43;;;50.13;;
74821;SDS011;63353;48.702;8.884;2023-12-28T06:24:31;44.43;;;42.73;;
74821;SDS011;63353;48.702;8.884;2023-12-28T06:26:57;56.80;;;54.43;;
74821;SDS011;63353;48.702;8.884;2023-12-28T06:29:23;65.80;;;63.17;;
74821;SDS011;63353;48.702;8.884;2023-12-28T06:31:48;47.83;;;45.93;;
74821;SDS011;63353;48.702;8.884;2023-12-28T06:34:14;60.00;;;57.60;;
74821;SDS011;63353;48.702;8.884;2023-12-28T06:36:39;47.57;;;45.67;;
74821;SDS011;63353;48.702;8.884;2023-12-28T06:39:05;47.93;;;45.83;;
74821;SDS011;63353;48.702;8.884;2023-12-28T06:41:31;24.80;;;23.80;;
74821;SDS011;63353;48.702;8.884;2023-12-28T06:43:56;16.17;;;15.53;;
74821;SDS011;63353;48.702;8.884;2023-12-28T06:46:22;9.83;;;9.43;;
74821;SDS011;63353;48.702;8.884;2023-12-28T06:48:48;6.50;;;6.10;;
74821;SDS011;63353;48.702;8.884;2023-12-28T06:51:19;5.83;;;5.53;;
74821;SDS011;63353;48.702;8.884;2023-12-28T06:53:46;11.67;;;11.27;;
74821;SDS011;63353;48.702;8.884;2023-12-28T06:56:11;12.93;;;12.30;;
74821;SDS011;63353;48.702;8.884;2023-12-28T06:58:37;10.13;;;9.53;;
74821;SDS011;63353;48.702;8.884;2023-12-28T07:01:06;8.87;;;8.37;;
74821;SDS011;63353;48.702;8.884;2023-12-28T07:03:32;18.50;;;17.50;;
74821;SDS011;63353;48.702;8.884;2023-12-28T07:05:58;25.60;;;24.30;;
74821;SDS011;63353;48.702;8.884;2023-12-28T07:08:24;29.53;;;28.23;;
74821;SDS011;63353;48.702;8.884;2023-12-28T07:10:50;56.93;;;54.60;;
74821;SDS011;63353;48.702;8.884;2023-12-28T07:13:15;53.90;;;51.63;;
74821;SDS011;63353;48.702;8.884;2023-12-28T07:15:41;74.33;;;71.33;;
74821;SDS011;63353;48.702;8.884;2023-12-28T07:18:07;96.23;;;92.47;;
74821;SDS011;63353;48.702;8.884;2023-12-28T07:20:32;203.63;;;195.60;;
74821;SDS011;63353;48.702;8.884;2023-12-28T07:22:58;221.57;;;212.90;;
74821;SDS011;63353;48.702;8.884;2023-12-28T07:25:24;204.30;;;196.40;;
74821;SDS011;63353;48.702;8.884;2023-12-28T07:27:49;248.83;;;239.17;;
74821;SDS011;63353;48.702;8.884;2023-12-28T07:30:15;224.80;;;216.00;;
74821;SDS011;63353;48.702;8.884;2023-12-28T07:32:42;276.50;;;265.47;;
74821;SDS011;63353;48.702;8.884;2023-12-28T07:35:08;197.57;;;189.73;;
74821;SDS011;63353;48.702;8.884;2023-12-28T07:37:34;151.23;;;145.13;;
74821;SDS011;63353;48.702;8.884;2023-12-28T07:40:00;137.47;;;131.97;;
74821;SDS011;63353;48.702;8.884;2023-12-28T07:42:26;131.03;;;125.90;;
74821;SDS011;63353;48.702;8.884;2023-12-28T07:44:51;116.13;;;111.43;;
74821;SDS011;63353;48.702;8.884;2023-12-28T07:47:17;84.17;;;80.80;;
74821;SDS011;63353;48.702;8.884;2023-12-28T07:49:43;57.17;;;54.70;;
74821;SDS011;63353;48.702;8.884;2023-12-28T07:52:08;63.43;;;60.97;;
74821;SDS011;63353;48.702;8.884;2023-12-28T07:54:34;60.70;;;58.33;;
74821;SDS011;63353;48.702;8.884;2023-12-28T07:57:01;54.07;;;51.87;;
74821;SDS011;63353;48.702;8.884;2023-12-28T07:59:27;83.97;;;80.73;;
74821;SDS011;63353;48.702;8.884;2023-12-28T08:01:53;73.23;;;69.70;;
74821;SDS011;63353;48.702;8.884;2023-12-28T08:04:18;53.70;;;50.80;;
74821;SDS011;63353;48.702;8.884;2023-12-28T08:06:44;52.30;;;49.83;;
74821;SDS011;63353;48.702;8.884;2023-12-28T08:09:11;62.67;;;60.17;;
74821;SDS011;63353;48.702;8.884;2023-12-28T08:11:36;46.97;;;45.10;;
74821;SDS011;63353;48.702;8.884;2023-12-28T08:14:02;47.33;;;44.97;;
74821;SDS011;63353;48.702;8.884;2023-12-28T08:16:27;20.57;;;19.53;;
74821;SDS011;63353;48.702;8.884;2023-12-28T08:18:53;30.27;;;28.87;;
74821;SDS011;63353;48.702;8.884;2023-12-28T08:21:19;45.33;;;43.23;;
74821;SDS011;63353;48.702;8.884;2023-12-28T08:23:44;30.00;;;28.47;;
74821;SDS011;63353;48.702;8.884;2023-12-28T08:26:10;20.73;;;19.37;;
74821;SDS011;63353;48.702;8.884;2023-12-28T08:28:36;23.43;;;22.00;;
74821;SDS011;63353;48.702;8.884;2023-12-28T08:31:02;13.73;;;12.87;;
74821;SDS011;63353;48.702;8.884;2023-12-28T08:33:28;11.93;;;11.13;;
74821;SDS011;63353;48.702;8.884;2023-12-28T08:35:54;9.70;;;8.80;;
74821;SDS011;63353;48.702;8.884;2023-12-28T08:38:19;6.87;;;6.20;;
74821;SDS011;63353;48.702;8.884;2023-12-28T08:40:45;10.63;;;10.10;;
74821;SDS011;63353;48.702;8.884;2023-12-28T08:43:11;23.83;;;22.47;;
74821;SDS011;63353;48.702;8.884;2023-12-28T08:45:36;43.17;;;41.23;;
74821;SDS011;63353;48.702;8.884;2023-12-28T08:48:02;77.63;;;74.40;;
74821;SDS011;63353;48.702;8.884;2023-12-28T08:50:28;46.97;;;45.07;;
74821;SDS011;63353;48.702;8.884;2023-12-28T08:52:54;29.83;;;28.57;;
74821;SDS011;63353;48.702;8.884;2023-12-28T08:55:20;21.17;;;20.27;;
74821;SDS011;63353;48.702;8.884;2023-12-28T08:57:46;14.33;;;13.80;;
74821;SDS011;63353;48.702;8.884;2023-12-28T09:00:13;16.10;;;15.20;;
74821;SDS011;63353;48.702;8.884;2023-12-28T09:02:40;12.27;;;11.40;;
74821;SDS011;63353;48.702;8.884;2023-12-28T09:05:06;28.23;;;26.73;;
74821;SDS011;63353;48.702;8.884;2023-12-28T09:07:32;51.77;;;49.60;;
74821;SDS011;63353;48.702;8.884;2023-12-28T09:09:58;41.80;;;39.90;;
74821;SDS011;63353;48.702;8.884;2023-12-28T09:12:23;64.37;;;61.73;;
74821;SDS011;63353;48.702;8.884;2023-12-28T09:14:49;31.13;;;29.73;;
74821;SDS011;63353;48.702;8.884;2023-12-28T09:17:17;26.57;;;25.43;;
74821;SDS011;63353;48.702;8.884;2023-12-28T09:19:46;26.43;;;25.27;;
74821;SDS011;63353;48.702;8.884;2023-12-28T09:22:11;14.67;;;14.03;;
74821;SDS011;63353;48.702;8.884;2023-12-28T09:24:37;12.27;;;11.73;;
74821;SDS011;63353;48.702;8.884;2023-12-28T09:27:03;32.77;;;31.27;;
74821;SDS011;63353;48.702;8.884;2023-12-28T09:29:28;13.83;;;12.97;;
74821;SDS011;63353;48.702;8.884;2023-12-28T09:31:54;8.20;;;7.80;;
74821;SDS011;63353;48.702;8.884;2023-12-28T09:34:19;8.80;;;8.10;;
74821;SDS011;63353;48.702;8.884;2023-12-28T09:36:45;7.90;;;7.60;;
74821;SDS011;63353;48.702;8.884;2023-12-28T09:39:11;8.60;;;8.30;;
74821;SDS011;63353;48.702;8.884;2023-12-28T09:41:38;8.23;;;7.93;;
74821;SDS011;63353;48.702;8.884;2023-12-28T09:46:37;77.80;;;59.63;;
74821;SDS011;63353;48.702;8.884;2023-12-28T09:49:06;30.77;;;29.57;;
74821;SDS011;63353;48.702;8.884;2023-12-28T09:51:32;42.17;;;40.57;;
74821;SDS011;63353;48.702;8.884;2023-12-28T09:53:57;48.93;;;46.90;;
74821;SDS011;63353;48.702;8.884;2023-12-28T09:56:23;33.13;;;31.77;;
74821;SDS011;63353;48.702;8.884;2023-12-28T09:58:50;28.63;;;27.43;;
74821;SDS011;63353;48.702;8.884;2023-12-28T10:01:17;24.77;;;23.77;;
74821;SDS011;63353;48.702;8.884;2023-12-28T10:03:44;16.17;;;15.17;;
74821;SDS011;63353;48.702;8.884;2023-12-28T10:06:09;14.27;;;13.70;;
74821;SDS011;63353;48.702;8.884;2023-12-28T10:08:35;13.13;;;12.57;;
74821;SDS011;63353;48.702;8.884;2023-12-28T10:11:01;12.20;;;11.60;;
74821;SDS011;63353;48.702;8.884;2023-12-28T10:13:28;10.67;;;10.27;;
74821;SDS011;63353;48.702;8.884;2023-12-28T10:15:57;9.00;;;8.70;;
74821;SDS011;63353;48.702;8.884;2023-12-28T10:18:24;7.93;;;7.60;;
74821;SDS011;63353;48.702;8.884;2023-12-28T10:20:50;11.77;;;11.33;;
74821;SDS011;63353;48.702;8.884;2023-12-28T10:23:17;15.87;;;15.07;;
74821;SDS011;63353;48.702;8.884;2023-12-28T10:25:43;20.10;;;19.03;;
74821;SDS011;63353;48.702;8.884;2023-12-28T10:28:11;22.43;;;21.60;;
74821;SDS011;63353;48.702;8.884;2023-12-28T10:30:40;26.90;;;25.80;;
74821;SDS011;63353;48.702;8.884;2023-12-28T10:33:06;28.00;;;26.90;;
74821;SDS011;63353;48.702;8.884;2023-12-28T10:35:32;33.50;;;32.13;;
74821;SDS011;63353;48.702;8.884;2023-12-28T10:38:01;22.10;;;21.17;;
74821;SDS011;63353;48.702;8.884;2023-12-28T10:40:28;55.73;;;53.30;;
74821;SDS011;63353;48.702;8.884;2023-12-28T10:43:01;39.57;;;37.80;;
74821;SDS011;63353;48.702;8.884;2023-12-28T10:45:29;23.07;;;22.17;;
74821;SDS011;63353;48.702;8.884;2023-12-28T10:50:42;18.63;;;17.83;;
74821;SDS011;63353;48.702;8.884;2023-12-28T10:53:24;11.53;;;11.03;;
74821;SDS011;63353;48.702;8.884;2023-12-28T10:55:53;11.87;;;11.37;;
74821;SDS011;63353;48.702;8.884;2023-12-28T10:58:48;12.07;;;11.53;;
74821;SDS011;63353;48.702;8.884;2023-12-28T11:01:15;8.97;;;8.63;;
74821;SDS011;63353;48.702;8.884;2023-12-28T11:03:48;13.30;;;12.80;;
74821;SDS011;63353;48.702;8.884;2023-12-28T11:06:36;7.67;;;7.13;;
74821;SDS011;63353;48.702;8.884;2023-12-28T11:09:03;8.30;;;8.00;;
74821;SDS011;63353;48.702;8.884;2023-12-28T11:11:31;17.67;;;16.93;;
74821;SDS011;63353;48.702;8.884;2023-12-28T11:13:59;35.93;;;34.47;;
74821;SDS011;63353;48.702;8.884;2023-12-28T11:16:25;12.43;;;11.93;;
74821;SDS011;63353;48.702;8.884;2023-12-28T11:18:53;10.83;;;10.33;;
74821;SDS011;63353;48.702;8.884;2023-12-28T11:21:20;12.57;;;12.03;;
74821;SDS011;63353;48.702;8.884;2023-12-28T11:23:48;15.43;;;14.63;;
74821;SDS011;63353;48.702;8.884;2023-12-28T11:26:18;21.57;;;20.57;;
74821;SDS011;63353;48.702;8.884;2023-12-28T11:28:45;37.20;;;35.70;;
74821;SDS011;63353;48.702;8.884;2023-12-28T11:31:13;15.90;;;15.27;;
74821;SDS011;63353;48.702;8.884;2023-12-28T11:33:43;84.70;;;80.97;;
74821;SDS011;63353;48.702;8.884;2023-12-28T11:36:22;70.57;;;67.60;;
74821;SDS011;63353;48.702;8.884;2023-12-28T11:38:53;70.97;;;68.00;;
74821;SDS011;63353;48.702;8.884;2023-12-28T11:41:20;30.70;;;29.07;;
74821;SDS011;63353;48.702;8.884;2023-12-28T11:44:04;11.60;;;11.00;;
74821;SDS011;63353;48.702;8.884;2023-12-28T11:46:35;39.80;;;37.80;;
74821;SDS011;63353;48.702;8.884;2023-12-28T11:49:08;38.30;;;36.70;;
74821;SDS011;63353;48.702;8.884;2023-12-28T11:51:38;72.63;;;69.77;;
74821;SDS011;63353;48.702;8.884;2023-12-28T11:54:04;177.63;;;170.47;;
74821;SDS011;63353;48.702;8.884;2023-12-28T11:56:30;139.17;;;133.47;;
74821;SDS011;63353;48.702;8.884;2023-12-28T11:58:58;112.43;;;108.00;;
74821;SDS011;63353;48.702;8.884;2023-12-28T12:01:24;111.33;;;106.83;;
74821;SDS011;63353;48.702;8.884;2023-12-28T12:03:50;197.67;;;189.63;;
74821;SDS011;63353;48.702;8.884;2023-12-28T12:06:15;175.13;;;168.27;;
74821;SDS011;63353;48.702;8.884;2023-12-28T12:08:44;64.10;;;61.43;;
74821;SDS011;63353;48.702;8.884;2023-12-28T12:11:11;171.90;;;165.07;;
74821;SDS011;63353;48.702;8.884;2023-12-28T12:13:37;154.93;;;148.87;;
74821;SDS011;63353;48.702;8.884;2023-12-28T12:16:03;256.43;;;246.47;;
74821;SDS011;63353;48.702;8.884;2023-12-28T12:18:31;201.70;;;193.87;;
74821;SDS011;63353;48.702;8.884;2023-12-28T12:20:58;189.83;;;182.47;;
74821;SDS011;63353;48.702;8.884;2023-12-28T12:23:23;61.70;;;59.17;;
74821;SDS011;63353;48.702;8.884;2023-12-28T12:25:51;21.97;;;21.07;;
74821;SDS011;63353;48.702;8.884;2023-12-28T12:28:17;22.13;;;21.10;;
74821;SDS011;63353;48.702;8.884;2023-12-28T12:30:49;52.10;;;49.90;;
74821;SDS011;63353;48.702;8.884;2023-12-28T12:33:16;20.43;;;19.50;;
74821;SDS011;63353;48.702;8.884;2023-12-28T12:35:42;105.67;;;101.50;;
74821;SDS011;63353;48.702;8.884;2023-12-28T12:38:08;99.83;;;95.83;;
74821;SDS011;63353;48.702;8.884;2023-12-28T12:40:33;133.10;;;127.67;;
74821;SDS011;63353;48.702;8.884;2023-12-28T12:42:59;145.53;;;139.70;;
74821;SDS011;63353;48.702;8.884;2023-12-28T12:45:25;252.23;;;242.33;;
74821;SDS011;63353;48.702;8.884;2023-12-28T12:47:51;241.17;;;231.77;;
74821;SDS011;63353;48.702;8.884;2023-12-28T12:50:17;232.33;;;223.03;;
74821;SDS011;63353;48.702;8.884;2023-12-28T12:52:43;209.27;;;201.13;;
74821;SDS011;63353;48.702;8.884;2023-12-28T12:55:13;212.33;;;204.00;;
74821;SDS011;63353;48.702;8.884;2023-12-28T12:57:42;230.20;;;220.87;;
74821;SDS011;63353;48.702;8.884;2023-12-28T13:00:09;234.40;;;225.00;;
74821;SDS011;63353;48.702;8.884;2023-12-28T13:02:35;278.50;;;267.33;;
74821;SDS011;63353;48.702;8.884;2023-12-28T13:05:01;304.27;;;291.77;;
74821;SDS011;63353;48.702;8.884;2023-12-28T13:07:29;329.33;;;315.70;;
74821;SDS011;63353;48.702;8.884;2023-12-28T13:09:55;314.37;;;301.70;;
74821;SDS011;63353;48.702;8.884;2023-12-28T13:12:20;321.03;;;308.03;;
74821;SDS011;63353;48.702;8.884;2023-12-28T13:14:46;243.20;;;233.50;;
74821;SDS011;63353;48.702;8.884;2023-12-28T13:17:12;231.33;;;222.07;;
74821;SDS011;63353;48.702;8.884;2023-12-28T13:19:38;224.90;;;215.83;;
74821;SDS011;63353;48.702;8.884;2023-12-28T13:22:04;228.07;;;218.87;;
74821;SDS011;63353;48.702;8.884;2023-12-28T13:24:30;235.20;;;225.37;;
74821;SDS011;63353;48.702;8.884;2023-12-28T13:26:56;271.43;;;259.77;;
74821;SDS011;63353;48.702;8.884;2023-12-28T13:29:22;463.60;;;438.67;;
74821;SDS011;63353;48.702;8.884;2023-12-28T13:31:47;296.47;;;283.73;;
74821;SDS011;63353;48.702;8.884;2023-12-28T13:34:15;406.43;;;386.10;;
74821;SDS011;63353;48.702;8.884;2023-12-28T13:36:43;327.93;;;312.87;;
74821;SDS011;63353;48.702;8.884;2023-12-28T13:39:09;405.97;;;385.83;;
74821;SDS011;63353;48.702;8.884;2023-12-28T13:41:37;542.03;;;511.77;;
74821;SDS011;63353;48.702;8.884;2023-12-28T13:44:03;680.20;;;639.37;;
74821;SDS011;63353;48.702;8.884;2023-12-28T13:46:30;752.00;;;705.80;;
74821;SDS011;63353;48.702;8.884;2023-12-28T13:48:55;747.77;;;702.43;;
74821;SDS011;63353;48.702;8.884;2023-12-28T13:51:22;683.57;;;645.50;;
74821;SDS011;63353;48.702;8.884;2023-12-28T13:53:47;756.50;;;712.33;;
74821;SDS011;63353;48.702;8.884;2023-12-28T13:56:13;795.17;;;748.03;;
74821;SDS011;63353;48.702;8.884;2023-12-28T13:58:39;715.40;;;675.10;;
74821;SDS011;63353;48.702;8.884;2023-12-28T14:01:04;805.20;;;757.00;;
74821;SDS011;63353;48.702;8.884;2023-12-28T14:03:30;713.90;;;673.67;;
74821;SDS011;63353;48.702;8.884;2023-12-28T14:05:56;818.67;;;767.70;;
74821;SDS011;63353;48.702;8.884;2023-12-28T14:08:21;795.47;;;747.60;;
74821;SDS011;63353;48.702;8.884;2023-12-28T14:10:47;786.83;;;739.63;;
74821;SDS011;63353;48.702;8.884;2023-12-28T14:13:13;789.93;;;743.07;;
74821;SDS011;63353;48.702;8.884;2023-12-28T14:15:38;763.30;;;718.97;;
74821;SDS011;63353;48.702;8.884;2023-12-28T14:18:04;769.97;;;724.77;;
74821;SDS011;63353;48.702;8.884;2023-12-28T14:20:32;755.57;;;711.60;;
74821;SDS011;63353;48.702;8.884;2023-12-28T14:22:58;599.57;;;567.43;;